FMMT

Toamasina Airport

Madagascar
METAR FMMT 241100Z 10007KT 080V140 9999 FEW020 27/20 Q1019 NOSIG
Observed Flight Rules
Sep-24 @ 11:00 UTC (32 minutes ago) Visual Flight Rules
Wind Visibility Clouds
100° at 7 knots 10,000+ meters
  • Few at 2,000' AGL
Temperatures Readings
Current 27°C / 81°F
Dewpoint 20°C / 68°F
Humidity 66%
Altimeter 30.09" Hg
Pressure 1019 hPa
Elevation 6
METAR FMMT 241100Z 10007KT 080V140 9999 FEW020 27/20 Q1019 NOSIG
Observed Flight Rules
Sep-24 @ 11:00 UTC
(32 minutes ago)
VFR
Wind Visibility
100° at 7 knots 10,000+ meters
Clouds
  • Few at 2,000' AGL
Temperature Dewpoint
27°C / 81°F 20°C / 68°F
Humidity Altimeter Pressure
66% 30.09" Hg 1019 hPa